sensor_id;sensor_type;location;lat;lon;timestamp;pressure;altitude;pressure_sealevel;temperature;humidity
13387;BME280;6763;48.524;9.044;2024-01-25T00:01:38;98972.06;;;13.65;50.12
13387;BME280;6763;48.524;9.044;2024-01-25T00:04:04;98943.66;;;13.48;50.06
13387;BME280;6763;48.524;9.044;2024-01-25T00:06:29;98978.16;;;13.64;50.31
13387;BME280;6763;48.524;9.044;2024-01-25T00:08:54;98929.06;;;13.34;50.03
13387;BME280;6763;48.524;9.044;2024-01-25T00:11:20;98912.72;;;13.24;50.28
13387;BME280;6763;48.524;9.044;2024-01-25T00:13:45;98975.56;;;13.62;50.42
13387;BME280;6763;48.524;9.044;2024-01-25T00:16:10;98967.78;;;13.59;50.33
13387;BME280;6763;48.524;9.044;2024-01-25T00:18:35;98975.59;;;13.59;50.20
13387;BME280;6763;48.524;9.044;2024-01-25T00:21:01;98973.00;;;13.59;50.41
13387;BME280;6763;48.524;9.044;2024-01-25T00:23:26;98948.91;;;13.45;50.61
13387;BME280;6763;48.524;9.044;2024-01-25T00:25:52;98967.00;;;13.53;50.07
13387;BME280;6763;48.524;9.044;2024-01-25T00:28:17;98973.06;;;13.55;50.47
13387;BME280;6763;48.524;9.044;2024-01-25T00:30:43;98973.00;;;13.59;50.74
13387;BME280;6763;48.524;9.044;2024-01-25T00:33:08;98971.28;;;13.58;50.62
13387;BME280;6763;48.524;9.044;2024-01-25T00:35:33;98956.69;;;13.45;50.64
13387;BME280;6763;48.524;9.044;2024-01-25T00:37:59;98975.69;;;13.53;50.81
13387;BME280;6763;48.524;9.044;2024-01-25T00:40:26;98971.34;;;13.52;50.67
13387;BME280;6763;48.524;9.044;2024-01-25T00:42:51;98952.28;;;13.53;50.88
13387;BME280;6763;48.524;9.044;2024-01-25T00:45:21;98951.31;;;13.60;50.57
13387;BME280;6763;48.524;9.044;2024-01-25T00:47:47;98910.75;;;13.44;50.66
13387;BME280;6763;48.524;9.044;2024-01-25T00:50:12;98921.06;;;13.52;50.20
13387;BME280;6763;48.524;9.044;2024-01-25T00:52:38;98955.50;;;13.74;50.53
13387;BME280;6763;48.524;9.044;2024-01-25T00:55:04;98963.25;;;13.75;50.47
13387;BME280;6763;48.524;9.044;2024-01-25T00:57:30;98932.16;;;13.64;50.51
13387;BME280;6763;48.524;9.044;2024-01-25T00:59:56;98946.78;;;13.76;50.17
13387;BME280;6763;48.524;9.044;2024-01-25T01:02:22;98956.22;;;13.85;50.13
13387;BME280;6763;48.524;9.044;2024-01-25T01:04:48;98946.59;;;13.88;49.98
13387;BME280;6763;48.524;9.044;2024-01-25T01:07:14;98932.88;;;13.79;50.04
13387;BME280;6763;48.524;9.044;2024-01-25T01:09:39;98950.03;;;13.92;49.79
13387;BME280;6763;48.524;9.044;2024-01-25T01:12:04;98919.84;;;13.79;49.52
13387;BME280;6763;48.524;9.044;2024-01-25T01:14:29;98942.28;;;13.90;50.14
13387;BME280;6763;48.524;9.044;2024-01-25T01:16:55;98956.09;;;13.95;50.26
13387;BME280;6763;48.524;9.044;2024-01-25T01:19:20;98952.56;;;13.98;49.66
13387;BME280;6763;48.524;9.044;2024-01-25T01:21:46;98937.00;;;13.95;49.79
13387;BME280;6763;48.524;9.044;2024-01-25T01:24:11;98962.91;;;14.01;49.77
13387;BME280;6763;48.524;9.044;2024-01-25T01:26:37;98942.09;;;14.01;49.65
13387;BME280;6763;48.524;9.044;2024-01-25T01:29:03;98957.59;;;14.10;49.59
13387;BME280;6763;48.524;9.044;2024-01-25T01:31:28;98948.09;;;14.06;49.67
13387;BME280;6763;48.524;9.044;2024-01-25T01:33:53;98916.25;;;13.89;49.54
13387;BME280;6763;48.524;9.044;2024-01-25T01:36:19;98958.44;;;14.12;49.39
13387;BME280;6763;48.524;9.044;2024-01-25T01:38:44;98952.41;;;14.10;49.38
13387;BME280;6763;48.524;9.044;2024-01-25T01:41:10;98953.31;;;14.06;49.43
13387;BME280;6763;48.524;9.044;2024-01-25T01:43:36;98929.16;;;13.96;49.04
13387;BME280;6763;48.524;9.044;2024-01-25T01:46:06;98914.50;;;13.89;49.07
13387;BME280;6763;48.524;9.044;2024-01-25T01:48:34;98922.31;;;13.89;49.58
13387;BME280;6763;48.524;9.044;2024-01-25T01:51:03;98914.59;;;13.85;49.38
13387;BME280;6763;48.524;9.044;2024-01-25T01:53:28;98947.22;;;14.07;49.29
13387;BME280;6763;48.524;9.044;2024-01-25T01:55:54;98913.63;;;13.90;49.02
13387;BME280;6763;48.524;9.044;2024-01-25T01:58:20;98889.63;;;13.68;49.22
13387;BME280;6763;48.524;9.044;2024-01-25T02:00:48;98945.66;;;13.95;49.29
13387;BME280;6763;48.524;9.044;2024-01-25T02:03:14;98910.31;;;13.78;49.86
13387;BME280;6763;48.524;9.044;2024-01-25T02:05:41;98942.22;;;13.92;49.58
13387;BME280;6763;48.524;9.044;2024-01-25T02:08:06;98912.94;;;13.76;49.72
13387;BME280;6763;48.524;9.044;2024-01-25T02:10:32;98938.75;;;13.93;49.84
13387;BME280;6763;48.524;9.044;2024-01-25T02:12:57;98925.00;;;13.85;50.40
13387;BME280;6763;48.524;9.044;2024-01-25T02:15:22;98934.47;;;13.89;50.53
13387;BME280;6763;48.524;9.044;2024-01-25T02:17:48;98906.94;;;13.69;50.87
13387;BME280;6763;48.524;9.044;2024-01-25T02:20:14;98949.25;;;13.85;51.14
13387;BME280;6763;48.524;9.044;2024-01-25T02:22:39;98945.00;;;13.78;51.10
13387;BME280;6763;48.524;9.044;2024-01-25T02:25:04;98927.75;;;13.69;51.05
13387;BME280;6763;48.524;9.044;2024-01-25T02:27:30;98954.41;;;13.90;51.17
13387;BME280;6763;48.524;9.044;2024-01-25T02:29:55;98927.53;;;13.88;51.46
13387;BME280;6763;48.524;9.044;2024-01-25T02:32:20;98912.88;;;13.81;51.29
13387;BME280;6763;48.524;9.044;2024-01-25T02:34:46;98937.88;;;13.94;51.22
13387;BME280;6763;48.524;9.044;2024-01-25T02:37:12;98944.03;;;13.87;51.80
13387;BME280;6763;48.524;9.044;2024-01-25T02:39:39;98939.66;;;13.89;51.90
13387;BME280;6763;48.524;9.044;2024-01-25T02:42:04;98879.44;;;13.53;51.42
13387;BME280;6763;48.524;9.044;2024-01-25T02:44:30;98947.50;;;13.86;52.11
13387;BME280;6763;48.524;9.044;2024-01-25T02:46:55;98912.22;;;13.66;52.34
13387;BME280;6763;48.524;9.044;2024-01-25T02:49:20;98883.84;;;13.47;52.37
13387;BME280;6763;48.524;9.044;2024-01-25T02:51:46;98947.50;;;13.86;51.95
13387;BME280;6763;48.524;9.044;2024-01-25T02:54:11;98947.47;;;13.89;52.44
13387;BME280;6763;48.524;9.044;2024-01-25T02:56:36;98936.31;;;13.82;52.84
13387;BME280;6763;48.524;9.044;2024-01-25T02:59:02;98932.91;;;13.77;52.56
13387;BME280;6763;48.524;9.044;2024-01-25T03:01:27;98938.13;;;13.73;53.09
13387;BME280;6763;48.524;9.044;2024-01-25T03:03:53;98915.03;;;13.50;53.48
13387;BME280;6763;48.524;9.044;2024-01-25T03:06:18;98954.84;;;13.56;54.17
13387;BME280;6763;48.524;9.044;2024-01-25T03:08:44;98944.50;;;13.50;54.32
13387;BME280;6763;48.524;9.044;2024-01-25T03:11:09;98922.97;;;13.36;54.22
13387;BME280;6763;48.524;9.044;2024-01-25T03:13:34;98939.41;;;13.40;55.54
13387;BME280;6763;48.524;9.044;2024-01-25T03:15:59;98933.47;;;13.30;55.25
13387;BME280;6763;48.524;9.044;2024-01-25T03:18:25;98940.38;;;13.31;55.96
13387;BME280;6763;48.524;9.044;2024-01-25T03:20:50;98947.25;;;13.38;56.10
13387;BME280;6763;48.524;9.044;2024-01-25T03:23:16;98946.38;;;13.36;56.39
13387;BME280;6763;48.524;9.044;2024-01-25T03:25:41;98942.09;;;13.31;56.11
13387;BME280;6763;48.524;9.044;2024-01-25T03:28:07;98942.94;;;13.36;56.50
13387;BME280;6763;48.524;9.044;2024-01-25T03:30:34;98942.94;;;13.36;56.47
13387;BME280;6763;48.524;9.044;2024-01-25T03:32:59;98961.97;;;13.39;56.26
13387;BME280;6763;48.524;9.044;2024-01-25T03:35:24;98960.31;;;13.32;56.70
13387;BME280;6763;48.524;9.044;2024-01-25T03:37:50;98964.69;;;13.30;56.50
13387;BME280;6763;48.524;9.044;2024-01-25T03:40:15;98962.06;;;13.29;57.24
13387;BME280;6763;48.524;9.044;2024-01-25T03:42:40;98938.91;;;13.07;57.46
13387;BME280;6763;48.524;9.044;2024-01-25T03:45:06;98975.13;;;13.24;57.80
13387;BME280;6763;48.524;9.044;2024-01-25T03:47:32;98967.41;;;13.17;57.38
13387;BME280;6763;48.524;9.044;2024-01-25T03:49:57;98965.75;;;13.08;57.98
13387;BME280;6763;48.524;9.044;2024-01-25T03:52:22;98964.06;;;13.01;58.05
13387;BME280;6763;48.524;9.044;2024-01-25T03:54:48;98974.38;;;13.10;58.46
13387;BME280;6763;48.524;9.044;2024-01-25T03:57:13;98927.00;;;12.81;58.15
13387;BME280;6763;48.524;9.044;2024-01-25T03:59:38;98972.69;;;13.06;58.50
13387;BME280;6763;48.524;9.044;2024-01-25T04:02:03;98964.13;;;12.96;58.12
13387;BME280;6763;48.524;9.044;2024-01-25T04:04:29;98975.41;;;12.92;58.98
13387;BME280;6763;48.524;9.044;2024-01-25T04:06:54;98997.03;;;12.94;59.92
13387;BME280;6763;48.524;9.044;2024-01-25T04:09:20;98935.06;;;12.51;59.20
13387;BME280;6763;48.524;9.044;2024-01-25T04:11:45;99015.25;;;12.90;59.87
13387;BME280;6763;48.524;9.044;2024-01-25T04:14:10;98983.34;;;12.74;59.92
13387;BME280;6763;48.524;9.044;2024-01-25T04:16:35;98999.72;;;12.85;59.94
13387;BME280;6763;48.524;9.044;2024-01-25T04:19:01;99008.28;;;12.96;59.82
13387;BME280;6763;48.524;9.044;2024-01-25T04:21:27;98995.41;;;12.83;59.75
13387;BME280;6763;48.524;9.044;2024-01-25T04:23:52;98979.88;;;12.75;59.80
13387;BME280;6763;48.524;9.044;2024-01-25T04:26:18;99012.66;;;12.90;59.85
13387;BME280;6763;48.524;9.044;2024-01-25T04:28:43;99016.09;;;12.96;59.93
13387;BME280;6763;48.524;9.044;2024-01-25T04:31:09;98996.22;;;12.91;59.55
13387;BME280;6763;48.524;9.044;2024-01-25T04:33:34;99008.22;;;13.02;59.48
13387;BME280;6763;48.524;9.044;2024-01-25T04:35:59;99003.03;;;13.04;59.21
13387;BME280;6763;48.524;9.044;2024-01-25T04:38:25;99022.00;;;13.17;59.21
13387;BME280;6763;48.524;9.044;2024-01-25T04:40:50;99015.13;;;13.05;59.23
13387;BME280;6763;48.524;9.044;2024-01-25T04:43:15;99032.38;;;13.18;59.34
13387;BME280;6763;48.524;9.044;2024-01-25T04:45:41;99028.09;;;13.13;59.17
13387;BME280;6763;48.524;9.044;2024-01-25T04:48:06;99023.78;;;13.12;59.30
13387;BME280;6763;48.524;9.044;2024-01-25T04:50:32;99034.13;;;13.16;58.95
13387;BME280;6763;48.524;9.044;2024-01-25T04:52:57;99035.91;;;13.14;58.77
13387;BME280;6763;48.524;9.044;2024-01-25T04:55:25;99009.16;;;12.95;59.06
13387;BME280;6763;48.524;9.044;2024-01-25T04:57:51;98970.44;;;12.64;58.98
13387;BME280;6763;48.524;9.044;2024-01-25T05:00:21;99015.25;;;12.90;59.52
13387;BME280;6763;48.524;9.044;2024-01-25T05:02:47;98992.03;;;12.73;59.23
13387;BME280;6763;48.524;9.044;2024-01-25T05:05:13;98979.94;;;12.69;59.48
13387;BME280;6763;48.524;9.044;2024-01-25T05:07:38;99022.19;;;12.94;59.07
13387;BME280;6763;48.524;9.044;2024-01-25T05:10:04;99043.78;;;12.97;59.23
13387;BME280;6763;48.524;9.044;2024-01-25T05:12:29;99033.41;;;12.96;59.25
13387;BME280;6763;48.524;9.044;2024-01-25T05:14:55;99046.44;;;12.93;58.61
13387;BME280;6763;48.524;9.044;2024-01-25T05:17:20;99053.28;;;13.03;58.93
13387;BME280;6763;48.524;9.044;2024-01-25T05:19:45;99047.22;;;13.04;58.80
13387;BME280;6763;48.524;9.044;2024-01-25T05:22:11;99055.03;;;13.07;58.25
13387;BME280;6763;48.524;9.044;2024-01-25T05:24:36;99047.19;;;13.09;57.33
13387;BME280;6763;48.524;9.044;2024-01-25T05:27:04;99048.09;;;13.01;57.31
13387;BME280;6763;48.524;9.044;2024-01-25T05:29:30;99059.31;;;13.05;57.67
13387;BME280;6763;48.524;9.044;2024-01-25T05:31:55;99055.88;;;13.04;57.21
13387;BME280;6763;48.524;9.044;2024-01-25T05:34:21;99050.66;;;13.12;55.71
13387;BME280;6763;48.524;9.044;2024-01-25T05:36:46;99052.41;;;13.04;56.15
13387;BME280;6763;48.524;9.044;2024-01-25T05:39:13;99027.38;;;12.89;55.58
13387;BME280;6763;48.524;9.044;2024-01-25T05:41:38;99056.81;;;12.93;55.35
13387;BME280;6763;48.524;9.044;2024-01-25T05:44:04;99067.22;;;12.93;54.85
13387;BME280;6763;48.524;9.044;2024-01-25T05:46:29;99059.47;;;12.88;54.61
13387;BME280;6763;48.524;9.044;2024-01-25T05:48:55;99072.44;;;12.90;54.22
13387;BME280;6763;48.524;9.044;2024-01-25T05:51:20;99062.09;;;12.84;53.81
13387;BME280;6763;48.524;9.044;2024-01-25T05:53:46;99060.34;;;12.86;53.56
13387;BME280;6763;48.524;9.044;2024-01-25T05:56:11;99069.00;;;12.85;53.67
13387;BME280;6763;48.524;9.044;2024-01-25T05:58:36;99074.22;;;12.85;53.33
13387;BME280;6763;48.524;9.044;2024-01-25T06:01:02;99075.91;;;12.90;53.33
13387;BME280;6763;48.524;9.044;2024-01-25T06:03:28;99056.03;;;12.82;52.77
13387;BME280;6763;48.524;9.044;2024-01-25T06:05:53;99065.56;;;12.81;52.70
13387;BME280;6763;48.524;9.044;2024-01-25T06:08:18;99061.28;;;12.77;52.82
13387;BME280;6763;48.524;9.044;2024-01-25T06:10:44;99068.19;;;12.80;52.14
13387;BME280;6763;48.524;9.044;2024-01-25T06:13:09;99051.84;;;12.66;52.25
13387;BME280;6763;48.524;9.044;2024-01-25T06:15:34;99060.56;;;12.54;52.41
13387;BME280;6763;48.524;9.044;2024-01-25T06:18:00;99057.16;;;12.40;52.68
13387;BME280;6763;48.524;9.044;2024-01-25T06:20:25;99067.59;;;12.32;52.86
13387;BME280;6763;48.524;9.044;2024-01-25T06:22:50;99044.34;;;12.13;52.63
13387;BME280;6763;48.524;9.044;2024-01-25T06:25:16;99057.31;;;12.14;53.16
13387;BME280;6763;48.524;9.044;2024-01-25T06:27:41;99046.16;;;11.91;53.20
13387;BME280;6763;48.524;9.044;2024-01-25T06:30:07;99070.38;;;11.95;53.63
13387;BME280;6763;48.524;9.044;2024-01-25T06:32:32;99070.38;;;11.92;54.10
13387;BME280;6763;48.524;9.044;2024-01-25T06:34:57;99077.34;;;11.85;53.49
13387;BME280;6763;48.524;9.044;2024-01-25T06:37:23;99082.53;;;11.76;54.45
13387;BME280;6763;48.524;9.044;2024-01-25T06:39:48;99086.00;;;11.75;54.34
13387;BME280;6763;48.524;9.044;2024-01-25T06:42:14;99097.25;;;11.80;54.47
13387;BME280;6763;48.524;9.044;2024-01-25T06:44:39;99100.69;;;11.82;54.00
13387;BME280;6763;48.524;9.044;2024-01-25T06:47:04;99101.53;;;11.87;53.98
13387;BME280;6763;48.524;9.044;2024-01-25T06:49:30;99100.66;;;11.93;54.43
13387;BME280;6763;48.524;9.044;2024-01-25T06:51:55;99099.75;;;12.00;54.01
13387;BME280;6763;48.524;9.044;2024-01-25T06:54:20;99096.28;;;11.99;54.17
13387;BME280;6763;48.524;9.044;2024-01-25T06:56:46;99110.97;;;12.14;54.38
13387;BME280;6763;48.524;9.044;2024-01-25T06:59:11;99085.00;;;12.06;53.80
13387;BME280;6763;48.524;9.044;2024-01-25T07:01:36;99105.72;;;12.20;53.97
13387;BME280;6763;48.524;9.044;2024-01-25T07:04:02;99090.19;;;12.12;54.02
13387;BME280;6763;48.524;9.044;2024-01-25T07:06:28;99088.47;;;12.16;53.85
13387;BME280;6763;48.524;9.044;2024-01-25T07:08:53;99095.41;;;12.08;53.94
13387;BME280;6763;48.524;9.044;2024-01-25T07:11:19;99104.06;;;12.02;53.93
13387;BME280;6763;48.524;9.044;2024-01-25T07:13:44;99105.81;;;11.91;54.31
13387;BME280;6763;48.524;9.044;2024-01-25T07:16:09;99117.94;;;11.86;55.06
13387;BME280;6763;48.524;9.044;2024-01-25T07:18:35;99098.13;;;11.68;54.96
13387;BME280;6763;48.524;9.044;2024-01-25T07:21:00;99102.44;;;11.69;55.14
13387;BME280;6763;48.524;9.044;2024-01-25T07:23:26;99082.56;;;11.49;55.30
13387;BME280;6763;48.524;9.044;2024-01-25T07:25:52;99097.25;;;11.45;55.20
13387;BME280;6763;48.524;9.044;2024-01-25T07:28:21;99080.84;;;11.34;55.36
13387;BME280;6763;48.524;9.044;2024-01-25T07:30:49;99111.94;;;11.42;55.82
13387;BME280;6763;48.524;9.044;2024-01-25T07:33:15;99107.63;;;11.29;55.90
13387;BME280;6763;48.524;9.044;2024-01-25T07:35:41;99105.06;;;11.26;56.09
13387;BME280;6763;48.524;9.044;2024-01-25T07:38:14;99113.66;;;11.26;56.07
13387;BME280;6763;48.524;9.044;2024-01-25T07:40:39;99092.94;;;11.14;56.56
13387;BME280;6763;48.524;9.044;2024-01-25T07:43:08;99106.75;;;11.16;56.50
13387;BME280;6763;48.524;9.044;2024-01-25T07:45:33;99101.56;;;11.05;56.65
13387;BME280;6763;48.524;9.044;2024-01-25T07:47:59;99107.63;;;11.03;56.51
13387;BME280;6763;48.524;9.044;2024-01-25T07:50:25;99122.31;;;11.07;56.73
13387;BME280;6763;48.524;9.044;2024-01-25T07:52:50;99118.88;;;11.02;56.77
13387;BME280;6763;48.524;9.044;2024-01-25T07:55:16;99130.06;;;11.05;56.83
13387;BME280;6763;48.524;9.044;2024-01-25T07:57:41;99127.50;;;11.04;56.90
13387;BME280;6763;48.524;9.044;2024-01-25T08:00:07;99110.22;;;10.95;56.65
13387;BME280;6763;48.524;9.044;2024-01-25T08:02:34;99126.63;;;11.03;57.07
13387;BME280;6763;48.524;9.044;2024-01-25T08:04:59;99125.75;;;11.06;57.35
13387;BME280;6763;48.524;9.044;2024-01-25T08:07:24;99110.22;;;11.03;57.54
13387;BME280;6763;48.524;9.044;2024-01-25T08:09:49;99131.81;;;11.21;57.13
13387;BME280;6763;48.524;9.044;2024-01-25T08:12:18;99118.00;;;11.35;57.12
13387;BME280;6763;48.524;9.044;2024-01-25T08:14:43;99103.31;;;11.46;56.96
13387;BME280;6763;48.524;9.044;2024-01-25T08:17:09;99095.50;;;11.58;56.66
13387;BME280;6763;48.524;9.044;2024-01-25T08:19:34;99079.09;;;11.62;56.39
13387;BME280;6763;48.524;9.044;2024-01-25T08:22:00;99104.13;;;11.86;56.38
13387;BME280;6763;48.524;9.044;2024-01-25T08:24:25;99080.78;;;11.87;55.83
13387;BME280;6763;48.524;9.044;2024-01-25T08:26:50;99098.03;;;12.00;55.69
13387;BME280;6763;48.524;9.044;2024-01-25T08:29:16;99093.69;;;12.08;55.49
13387;BME280;6763;48.524;9.044;2024-01-25T08:31:41;99087.63;;;12.11;55.50
13387;BME280;6763;48.524;9.044;2024-01-25T08:34:06;99094.50;;;12.15;55.42
13387;BME280;6763;48.524;9.044;2024-01-25T08:36:32;99095.38;;;12.12;54.85
13387;BME280;6763;48.524;9.044;2024-01-25T08:38:57;99073.78;;;12.04;55.39
13387;BME280;6763;48.524;9.044;2024-01-25T08:41:22;99079.00;;;12.06;55.48
13387;BME280;6763;48.524;9.044;2024-01-25T08:43:49;99087.63;;;12.05;54.91
13387;BME280;6763;48.524;9.044;2024-01-25T08:46:14;99092.78;;;12.12;54.70
13387;BME280;6763;48.524;9.044;2024-01-25T08:48:40;99119.53;;;12.31;54.87
13387;BME280;6763;48.524;9.044;2024-01-25T08:51:06;99113.50;;;12.32;55.19
13387;BME280;6763;48.524;9.044;2024-01-25T08:53:31;99097.03;;;12.30;55.08
13387;BME280;6763;48.524;9.044;2024-01-25T08:55:56;99094.44;;;12.31;55.01
13387;BME280;6763;48.524;9.044;2024-01-25T08:58:22;99116.88;;;12.46;54.42
13387;BME280;6763;48.524;9.044;2024-01-25T09:00:47;99105.56;;;12.53;54.34
13387;BME280;6763;48.524;9.044;2024-01-25T09:03:14;99114.19;;;12.64;54.35
13387;BME280;6763;48.524;9.044;2024-01-25T09:05:40;99124.53;;;12.73;54.53
13387;BME280;6763;48.524;9.044;2024-01-25T09:08:13;99114.09;;;12.76;53.86
13387;BME280;6763;48.524;9.044;2024-01-25T09:10:39;99117.53;;;12.83;54.21
13387;BME280;6763;48.524;9.044;2024-01-25T09:13:05;99121.81;;;12.91;54.00
13387;BME280;6763;48.524;9.044;2024-01-25T09:15:30;99118.28;;;13.01;53.71
13387;BME280;6763;48.524;9.044;2024-01-25T09:17:55;99124.25;;;13.17;53.48
13387;BME280;6763;48.524;9.044;2024-01-25T09:20:21;99099.16;;;13.13;53.00
13387;BME280;6763;48.524;9.044;2024-01-25T09:22:46;99130.19;;;13.36;53.24
13387;BME280;6763;48.524;9.044;2024-01-25T09:25:13;99059.34;;;13.03;52.81
13387;BME280;6763;48.524;9.044;2024-01-25T09:27:38;99144.63;;;13.68;52.11
13387;BME280;6763;48.524;9.044;2024-01-25T09:30:05;99152.25;;;13.87;51.99
13387;BME280;6763;48.524;9.044;2024-01-25T09:32:30;99153.75;;;14.09;51.62
13387;BME280;6763;48.524;9.044;2024-01-25T09:34:56;99149.16;;;14.30;50.48
13387;BME280;6763;48.524;9.044;2024-01-25T09:37:21;99124.75;;;14.42;50.24
13387;BME280;6763;48.524;9.044;2024-01-25T09:39:48;99124.50;;;14.62;50.17
13387;BME280;6763;48.524;9.044;2024-01-25T09:42:14;99146.75;;;14.85;49.35
13387;BME280;6763;48.524;9.044;2024-01-25T09:44:39;99152.72;;;14.94;49.28
13387;BME280;6763;48.524;9.044;2024-01-25T09:47:05;99152.69;;;14.97;48.40
13387;BME280;6763;48.524;9.044;2024-01-25T09:49:32;99147.44;;;14.98;48.58
13387;BME280;6763;48.524;9.044;2024-01-25T09:51:59;99147.25;;;15.12;48.03
13387;BME280;6763;48.524;9.044;2024-01-25T09:54:34;99148.81;;;15.22;47.89
13387;BME280;6763;48.524;9.044;2024-01-25T09:57:11;99136.50;;;15.31;47.63
13387;BME280;6763;48.524;9.044;2024-01-25T09:59:38;99149.31;;;15.48;47.58
13387;BME280;6763;48.524;9.044;2024-01-25T10:02:04;99168.16;;;15.65;46.92
13387;BME280;6763;48.524;9.044;2024-01-25T10:04:29;99148.09;;;15.67;46.51
13387;BME280;6763;48.524;9.044;2024-01-25T10:06:56;99160.13;;;15.76;46.26
13387;BME280;6763;48.524;9.044;2024-01-25T10:09:21;99151.66;;;15.63;46.26
13387;BME280;6763;48.524;9.044;2024-01-25T10:11:47;99159.59;;;15.57;46.23
13387;BME280;6763;48.524;9.044;2024-01-25T10:14:13;99153.28;;;15.70;45.91
13387;BME280;6763;48.524;9.044;2024-01-25T10:16:38;99154.81;;;15.80;44.84
13387;BME280;6763;48.524;9.044;2024-01-25T10:19:06;99156.53;;;15.84;44.60
13387;BME280;6763;48.524;9.044;2024-01-25T10:21:35;99147.91;;;15.78;44.40
13387;BME280;6763;48.524;9.044;2024-01-25T10:24:01;99153.34;;;15.66;44.76
13387;BME280;6763;48.524;9.044;2024-01-25T10:26:28;99150.75;;;15.64;45.20
13387;BME280;6763;48.524;9.044;2024-01-25T10:28:54;99141.03;;;15.74;44.37
13387;BME280;6763;48.524;9.044;2024-01-25T10:31:23;99154.78;;;15.85;43.72
13387;BME280;6763;48.524;9.044;2024-01-25T10:33:51;99139.84;;;15.91;43.42
13387;BME280;6763;48.524;9.044;2024-01-25T10:36:18;99138.00;;;15.96;43.38
13387;BME280;6763;48.524;9.044;2024-01-25T10:38:47;99147.25;;;16.14;43.19
13387;BME280;6763;48.524;9.044;2024-01-25T10:41:13;99143.44;;;16.30;43.06
13387;BME280;6763;48.524;9.044;2024-01-25T10:43:39;99136.03;;;16.53;42.70
13387;BME280;6763;48.524;9.044;2024-01-25T10:46:06;99126.50;;;16.91;41.93
13387;BME280;6763;48.524;9.044;2024-01-25T10:48:31;99137.50;;;17.42;39.89
13387;BME280;6763;48.524;9.044;2024-01-25T10:50:57;99112.94;;;17.81;38.96
13387;BME280;6763;48.524;9.044;2024-01-25T10:53:29;99117.94;;;18.22;37.99
13387;BME280;6763;48.524;9.044;2024-01-25T10:55:57;99123.22;;;18.21;38.02
13387;BME280;6763;48.524;9.044;2024-01-25T10:58:22;99127.09;;;18.08;37.84
13387;BME280;6763;48.524;9.044;2024-01-25T11:00:52;99116.72;;;18.34;37.74
13387;BME280;6763;48.524;9.044;2024-01-25T11:03:18;99122.94;;;18.90;36.86
13387;BME280;6763;48.524;9.044;2024-01-25T11:05:45;99105.47;;;19.44;35.97
13387;BME280;6763;48.524;9.044;2024-01-25T11:08:19;99083.31;;;19.77;35.35
13387;BME280;6763;48.524;9.044;2024-01-25T11:10:49;99105.28;;;19.50;35.43
13387;BME280;6763;48.524;9.044;2024-01-25T11:13:16;99094.09;;;19.70;35.18
13387;BME280;6763;48.524;9.044;2024-01-25T11:18:12;99086.50;;;19.08;36.05
13387;BME280;6763;48.524;9.044;2024-01-25T11:20:38;99094.91;;;18.63;36.70
13387;BME280;6763;48.524;9.044;2024-01-25T11:23:05;99076.16;;;18.16;37.68
13387;BME280;6763;48.524;9.044;2024-01-25T11:25:33;99081.22;;;18.22;38.00
13387;BME280;6763;48.524;9.044;2024-01-25T11:28:01;99054.16;;;18.22;37.64
13387;BME280;6763;48.524;9.044;2024-01-25T11:30:28;99067.75;;;18.34;37.85
13387;BME280;6763;48.524;9.044;2024-01-25T11:32:53;99056.88;;;18.77;37.35
13387;BME280;6763;48.524;9.044;2024-01-25T11:35:18;99052.31;;;19.36;36.25
13387;BME280;6763;48.524;9.044;2024-01-25T11:37:45;99058.34;;;19.66;35.66
13387;BME280;6763;48.524;9.044;2024-01-25T11:40:11;99042.81;;;19.83;35.05
13387;BME280;6763;48.524;9.044;2024-01-25T11:42:38;99047.72;;;20.17;34.47
13387;BME280;6763;48.524;9.044;2024-01-25T11:45:08;99039.91;;;20.38;34.38
13387;BME280;6763;48.524;9.044;2024-01-25T11:47:35;99037.84;;;20.23;34.33
13387;BME280;6763;48.524;9.044;2024-01-25T11:50:00;99050.13;;;20.23;34.44
13387;BME280;6763;48.524;9.044;2024-01-25T11:52:26;99048.97;;;20.53;33.42
13387;BME280;6763;48.524;9.044;2024-01-25T11:54:51;99031.50;;;20.74;32.90
13387;BME280;6763;48.524;9.044;2024-01-25T11:57:17;99035.59;;;21.02;32.06
13387;BME280;6763;48.524;9.044;2024-01-25T11:59:43;99020.84;;;20.98;31.78
13387;BME280;6763;48.524;9.044;2024-01-25T12:02:13;99010.75;;;20.66;32.42
13387;BME280;6763;48.524;9.044;2024-01-25T12:04:39;98997.00;;;20.36;32.33
13387;BME280;6763;48.524;9.044;2024-01-25T12:07:05;98984.16;;;19.83;32.93
13387;BME280;6763;48.524;9.044;2024-01-25T12:09:30;99022.66;;;19.59;33.47
13387;BME280;6763;48.524;9.044;2024-01-25T12:11:55;99029.56;;;19.35;33.98
13387;BME280;6763;48.524;9.044;2024-01-25T12:14:23;99034.91;;;19.34;34.04
13387;BME280;6763;48.524;9.044;2024-01-25T12:16:49;99031.66;;;19.26;34.47
13387;BME280;6763;48.524;9.044;2024-01-25T12:19:15;99033.34;;;19.54;34.27
13387;BME280;6763;48.524;9.044;2024-01-25T12:21:43;99038.78;;;19.98;33.58
13387;BME280;6763;48.524;9.044;2024-01-25T12:24:09;99033.69;;;20.16;33.29
13387;BME280;6763;48.524;9.044;2024-01-25T12:26:35;99024.19;;;20.37;33.08
13387;BME280;6763;48.524;9.044;2024-01-25T12:29:01;99021.09;;;20.49;32.90
13387;BME280;6763;48.524;9.044;2024-01-25T12:31:26;99020.94;;;20.52;32.48
13387;BME280;6763;48.524;9.044;2024-01-25T12:33:51;99005.81;;;20.12;33.02
13387;BME280;6763;48.524;9.044;2024-01-25T12:36:16;99003.88;;;19.94;32.96
13387;BME280;6763;48.524;9.044;2024-01-25T12:38:42;98993.50;;;19.42;34.04
13387;BME280;6763;48.524;9.044;2024-01-25T12:41:07;98989.84;;;19.46;34.17
13387;BME280;6763;48.524;9.044;2024-01-25T12:43:32;98980.59;;;19.60;34.17
13387;BME280;6763;48.524;9.044;2024-01-25T12:45:58;98987.59;;;19.60;34.25
13387;BME280;6763;48.524;9.044;2024-01-25T12:48:23;98986.63;;;19.38;34.35
13387;BME280;6763;48.524;9.044;2024-01-25T12:50:48;98992.44;;;19.47;34.45
13387;BME280;6763;48.524;9.044;2024-01-25T12:53:14;98968.56;;;19.29;34.53
13387;BME280;6763;48.524;9.044;2024-01-25T12:55:40;98984.59;;;19.46;34.53
13387;BME280;6763;48.524;9.044;2024-01-25T12:58:05;98977.78;;;19.65;34.16
13387;BME280;6763;48.524;9.044;2024-01-25T13:00:31;98975.47;;;20.04;33.65
13387;BME280;6763;48.524;9.044;2024-01-25T13:02:56;98967.47;;;20.30;33.07
13387;BME280;6763;48.524;9.044;2024-01-25T13:05:22;98976.41;;;20.48;32.48